sensor_id;sensor_type;location;lat;lon;timestamp;P1;durP1;ratioP1;P2;durP2;ratioP2
77788;SDS011;66980;44.384;0.512;2023-02-21T17:37:38;13.25;;;10.40;;
77788;SDS011;66980;44.384;0.512;2023-02-21T17:40:04;14.00;;;9.50;;
77788;SDS011;66980;44.384;0.512;2023-02-21T17:42:29;15.18;;;9.77;;
77788;SDS011;66980;44.384;0.512;2023-02-21T17:44:55;11.10;;;9.85;;
77788;SDS011;66980;44.384;0.512;2023-02-21T17:47:21;13.57;;;9.48;;
77788;SDS011;66980;44.384;0.512;2023-02-21T17:49:48;11.48;;;9.63;;
77788;SDS011;66980;44.384;0.512;2023-02-21T17:52:14;11.15;;;9.88;;
77788;SDS011;66980;44.384;0.512;2023-02-21T17:54:40;11.38;;;9.10;;
77788;SDS011;66980;44.384;0.512;2023-02-21T17:57:07;10.90;;;7.88;;
77788;SDS011;66980;44.384;0.512;2023-02-21T17:59:36;10.45;;;9.35;;
77788;SDS011;66980;44.384;0.512;2023-02-21T18:02:02;12.18;;;9.23;;
77788;SDS011;66980;44.384;0.512;2023-02-21T18:04:27;12.02;;;9.13;;
77788;SDS011;66980;44.384;0.512;2023-02-21T18:06:54;14.10;;;8.10;;
77788;SDS011;66980;44.384;0.512;2023-02-21T18:09:19;13.05;;;9.77;;
77788;SDS011;66980;44.384;0.512;2023-02-21T18:11:48;27.98;;;19.08;;
77788;SDS011;66980;44.384;0.512;2023-02-21T18:14:15;165.80;;;109.07;;
77788;SDS011;66980;44.384;0.512;2023-02-21T18:16:41;93.88;;;62.72;;
77788;SDS011;66980;44.384;0.512;2023-02-21T18:19:07;115.05;;;78.95;;
77788;SDS011;66980;44.384;0.512;2023-02-21T18:21:33;88.00;;;64.00;;
77788;SDS011;66980;44.384;0.512;2023-02-21T18:23:59;92.68;;;70.13;;
77788;SDS011;66980;44.384;0.512;2023-02-21T18:26:25;90.60;;;68.72;;
77788;SDS011;66980;44.384;0.512;2023-02-21T18:28:50;51.90;;;37.95;;
77788;SDS011;66980;44.384;0.512;2023-02-21T18:31:17;49.05;;;35.83;;
77788;SDS011;66980;44.384;0.512;2023-02-21T18:33:43;64.85;;;48.00;;
77788;SDS011;66980;44.384;0.512;2023-02-21T18:36:09;69.10;;;45.70;;
77788;SDS011;66980;44.384;0.512;2023-02-21T18:38:35;64.13;;;44.67;;
77788;SDS011;66980;44.384;0.512;2023-02-21T18:41:07;60.15;;;41.70;;
77788;SDS011;66980;44.384;0.512;2023-02-21T18:43:34;78.03;;;56.28;;
77788;SDS011;66980;44.384;0.512;2023-02-21T18:45:59;84.50;;;57.80;;
77788;SDS011;66980;44.384;0.512;2023-02-21T18:48:25;62.05;;;42.88;;
77788;SDS011;66980;44.384;0.512;2023-02-21T18:50:51;61.25;;;43.92;;
77788;SDS011;66980;44.384;0.512;2023-02-21T18:53:17;61.88;;;46.75;;
77788;SDS011;66980;44.384;0.512;2023-02-21T18:55:43;65.43;;;46.72;;
77788;SDS011;66980;44.384;0.512;2023-02-21T18:58:09;62.55;;;39.53;;
77788;SDS011;66980;44.384;0.512;2023-02-21T19:00:35;53.17;;;38.40;;
77788;SDS011;66980;44.384;0.512;2023-02-21T19:03:04;50.95;;;37.70;;
77788;SDS011;66980;44.384;0.512;2023-02-21T19:05:32;47.88;;;34.70;;
77788;SDS011;66980;44.384;0.512;2023-02-21T19:07:58;45.72;;;34.40;;
77788;SDS011;66980;44.384;0.512;2023-02-21T19:10:25;45.83;;;33.63;;
77788;SDS011;66980;44.384;0.512;2023-02-21T19:12:52;44.90;;;31.83;;
77788;SDS011;66980;44.384;0.512;2023-02-21T19:15:18;44.78;;;31.98;;
77788;SDS011;66980;44.384;0.512;2023-02-21T19:17:44;43.63;;;30.92;;
77788;SDS011;66980;44.384;0.512;2023-02-21T19:20:10;38.03;;;29.27;;
77788;SDS011;66980;44.384;0.512;2023-02-21T19:22:37;40.22;;;28.83;;
77788;SDS011;66980;44.384;0.512;2023-02-21T19:25:03;40.25;;;30.52;;
77788;SDS011;66980;44.384;0.512;2023-02-21T19:27:29;34.53;;;27.17;;
77788;SDS011;66980;44.384;0.512;2023-02-21T19:29:55;40.10;;;28.67;;
77788;SDS011;66980;44.384;0.512;2023-02-21T19:32:21;36.97;;;27.40;;
77788;SDS011;66980;44.384;0.512;2023-02-21T19:34:47;39.47;;;27.48;;
77788;SDS011;66980;44.384;0.512;2023-02-21T19:37:13;31.38;;;25.63;;
77788;SDS011;66980;44.384;0.512;2023-02-21T19:39:39;29.35;;;24.20;;
77788;SDS011;66980;44.384;0.512;2023-02-21T19:42:05;34.55;;;25.27;;
77788;SDS011;66980;44.384;0.512;2023-02-21T19:44:30;33.47;;;24.25;;
77788;SDS011;66980;44.384;0.512;2023-02-21T19:46:56;34.90;;;24.65;;
77788;SDS011;66980;44.384;0.512;2023-02-21T19:49:21;31.23;;;24.48;;
77788;SDS011;66980;44.384;0.512;2023-02-21T19:51:48;32.53;;;23.73;;
77788;SDS011;66980;44.384;0.512;2023-02-21T19:56:43;28.75;;;22.52;;
77788;SDS011;66980;44.384;0.512;2023-02-21T19:59:09;33.67;;;22.88;;
77788;SDS011;66980;44.384;0.512;2023-02-21T20:01:36;28.83;;;21.33;;
77788;SDS011;66980;44.384;0.512;2023-02-21T20:04:01;29.60;;;21.85;;
77788;SDS011;66980;44.384;0.512;2023-02-21T20:06:27;25.58;;;20.63;;
77788;SDS011;66980;44.384;0.512;2023-02-21T20:08:58;27.30;;;20.30;;
77788;SDS011;66980;44.384;0.512;2023-02-21T20:11:23;24.27;;;20.30;;
77788;SDS011;66980;44.384;0.512;2023-02-21T20:13:49;24.60;;;18.98;;
77788;SDS011;66980;44.384;0.512;2023-02-21T20:16:15;26.50;;;21.08;;
77788;SDS011;66980;44.384;0.512;2023-02-21T20:18:44;23.67;;;19.58;;
77788;SDS011;66980;44.384;0.512;2023-02-21T20:21:17;23.88;;;20.38;;
77788;SDS011;66980;44.384;0.512;2023-02-21T20:23:44;22.90;;;17.98;;
77788;SDS011;66980;44.384;0.512;2023-02-21T20:26:10;27.20;;;17.75;;
77788;SDS011;66980;44.384;0.512;2023-02-21T20:28:36;22.17;;;17.42;;
77788;SDS011;66980;44.384;0.512;2023-02-21T20:31:02;22.58;;;15.80;;
77788;SDS011;66980;44.384;0.512;2023-02-21T20:33:28;22.95;;;17.80;;
77788;SDS011;66980;44.384;0.512;2023-02-21T20:35:53;22.20;;;17.85;;
77788;SDS011;66980;44.384;0.512;2023-02-21T20:38:19;21.48;;;16.25;;
77788;SDS011;66980;44.384;0.512;2023-02-21T20:40:45;21.33;;;17.08;;
77788;SDS011;66980;44.384;0.512;2023-02-21T20:43:11;18.92;;;16.85;;
77788;SDS011;66980;44.384;0.512;2023-02-21T20:45:37;20.98;;;16.55;;
77788;SDS011;66980;44.384;0.512;2023-02-21T20:48:07;20.92;;;17.05;;
77788;SDS011;66980;44.384;0.512;2023-02-21T20:50:35;20.52;;;15.55;;
77788;SDS011;66980;44.384;0.512;2023-02-21T20:53:01;19.30;;;14.95;;
77788;SDS011;66980;44.384;0.512;2023-02-21T20:55:26;20.15;;;15.50;;
77788;SDS011;66980;44.384;0.512;2023-02-21T20:57:52;20.02;;;15.23;;
77788;SDS011;66980;44.384;0.512;2023-02-21T21:00:17;17.67;;;14.88;;
77788;SDS011;66980;44.384;0.512;2023-02-21T21:02:50;18.75;;;15.25;;
77788;SDS011;66980;44.384;0.512;2023-02-21T21:05:16;18.42;;;14.13;;
77788;SDS011;66980;44.384;0.512;2023-02-21T21:07:43;17.85;;;14.70;;
77788;SDS011;66980;44.384;0.512;2023-02-21T21:10:10;18.33;;;14.98;;
77788;SDS011;66980;44.384;0.512;2023-02-21T21:12:38;18.38;;;14.25;;
77788;SDS011;66980;44.384;0.512;2023-02-21T21:15:06;16.08;;;13.55;;
77788;SDS011;66980;44.384;0.512;2023-02-21T21:17:34;16.55;;;13.82;;
77788;SDS011;66980;44.384;0.512;2023-02-21T21:20:02;21.27;;;14.60;;
77788;SDS011;66980;44.384;0.512;2023-02-21T21:22:39;17.30;;;14.38;;
77788;SDS011;66980;44.384;0.512;2023-02-21T21:25:05;16.80;;;14.13;;
77788;SDS011;66980;44.384;0.512;2023-02-21T21:27:32;17.50;;;14.00;;
77788;SDS011;66980;44.384;0.512;2023-02-21T21:29:58;20.58;;;14.60;;
77788;SDS011;66980;44.384;0.512;2023-02-21T21:32:25;15.40;;;13.40;;
77788;SDS011;66980;44.384;0.512;2023-02-21T21:34:52;20.75;;;14.93;;
77788;SDS011;66980;44.384;0.512;2023-02-21T21:37:20;16.42;;;14.15;;
77788;SDS011;66980;44.384;0.512;2023-02-21T21:39:50;17.08;;;13.45;;
77788;SDS011;66980;44.384;0.512;2023-02-21T21:42:20;15.98;;;12.60;;
77788;SDS011;66980;44.384;0.512;2023-02-21T21:44:50;15.13;;;13.30;;
77788;SDS011;66980;44.384;0.512;2023-02-21T21:47:24;15.45;;;12.50;;
77788;SDS011;66980;44.384;0.512;2023-02-21T21:49:51;15.02;;;12.23;;
77788;SDS011;66980;44.384;0.512;2023-02-21T21:52:17;15.60;;;12.50;;
77788;SDS011;66980;44.384;0.512;2023-02-21T21:54:44;15.90;;;13.32;;
77788;SDS011;66980;44.384;0.512;2023-02-21T21:57:11;17.67;;;12.73;;
77788;SDS011;66980;44.384;0.512;2023-02-21T21:59:38;16.08;;;12.25;;
77788;SDS011;66980;44.384;0.512;2023-02-21T22:02:07;13.90;;;12.40;;
77788;SDS011;66980;44.384;0.512;2023-02-21T22:04:34;14.35;;;11.68;;
77788;SDS011;66980;44.384;0.512;2023-02-21T22:07:03;16.33;;;13.63;;
77788;SDS011;66980;44.384;0.512;2023-02-21T22:09:30;15.40;;;11.98;;
77788;SDS011;66980;44.384;0.512;2023-02-21T22:11:55;15.15;;;12.20;;
77788;SDS011;66980;44.384;0.512;2023-02-21T22:14:21;13.45;;;11.43;;
77788;SDS011;66980;44.384;0.512;2023-02-21T22:16:48;12.27;;;11.00;;
77788;SDS011;66980;44.384;0.512;2023-02-21T22:19:16;13.75;;;11.13;;
77788;SDS011;66980;44.384;0.512;2023-02-21T22:24:09;13.85;;;11.60;;
77788;SDS011;66980;44.384;0.512;2023-02-21T22:26:35;13.82;;;10.90;;
77788;SDS011;66980;44.384;0.512;2023-02-21T22:29:06;13.00;;;11.63;;
77788;SDS011;66980;44.384;0.512;2023-02-21T22:31:32;13.13;;;11.15;;
77788;SDS011;66980;44.384;0.512;2023-02-21T22:33:58;13.88;;;11.20;;
77788;SDS011;66980;44.384;0.512;2023-02-21T22:38:54;14.00;;;11.45;;
77788;SDS011;66980;44.384;0.512;2023-02-21T22:41:23;12.48;;;10.82;;
77788;SDS011;66980;44.384;0.512;2023-02-21T22:43:51;13.88;;;11.02;;
77788;SDS011;66980;44.384;0.512;2023-02-21T22:46:19;11.98;;;10.20;;
77788;SDS011;66980;44.384;0.512;2023-02-21T22:48:46;14.43;;;11.10;;
77788;SDS011;66980;44.384;0.512;2023-02-21T22:51:16;11.32;;;9.93;;
77788;SDS011;66980;44.384;0.512;2023-02-21T22:53:45;12.57;;;9.27;;
77788;SDS011;66980;44.384;0.512;2023-02-21T22:56:15;14.63;;;10.30;;
77788;SDS011;66980;44.384;0.512;2023-02-21T22:58:47;12.23;;;10.52;;
77788;SDS011;66980;44.384;0.512;2023-02-21T23:01:13;12.43;;;9.70;;
77788;SDS011;66980;44.384;0.512;2023-02-21T23:03:41;11.93;;;9.50;;
77788;SDS011;66980;44.384;0.512;2023-02-21T23:06:07;11.50;;;9.38;;
77788;SDS011;66980;44.384;0.512;2023-02-21T23:08:32;11.30;;;9.75;;
77788;SDS011;66980;44.384;0.512;2023-02-21T23:11:01;13.45;;;9.77;;
77788;SDS011;66980;44.384;0.512;2023-02-21T23:13:28;11.15;;;9.95;;
77788;SDS011;66980;44.384;0.512;2023-02-21T23:15:54;10.95;;;9.85;;
77788;SDS011;66980;44.384;0.512;2023-02-21T23:18:21;10.68;;;9.57;;
77788;SDS011;66980;44.384;0.512;2023-02-21T23:20:48;12.70;;;9.55;;
77788;SDS011;66980;44.384;0.512;2023-02-21T23:23:17;10.73;;;9.27;;
77788;SDS011;66980;44.384;0.512;2023-02-21T23:25:43;10.40;;;9.30;;
77788;SDS011;66980;44.384;0.512;2023-02-21T23:28:11;10.82;;;9.15;;
77788;SDS011;66980;44.384;0.512;2023-02-21T23:30:39;11.93;;;8.43;;
77788;SDS011;66980;44.384;0.512;2023-02-21T23:33:16;10.30;;;9.18;;
77788;SDS011;66980;44.384;0.512;2023-02-21T23:35:48;10.75;;;9.43;;
77788;SDS011;66980;44.384;0.512;2023-02-21T23:38:16;11.38;;;9.48;;
77788;SDS011;66980;44.384;0.512;2023-02-21T23:40:46;11.90;;;9.32;;
77788;SDS011;66980;44.384;0.512;2023-02-21T23:43:15;9.23;;;8.32;;
77788;SDS011;66980;44.384;0.512;2023-02-21T23:45:42;12.02;;;8.70;;
77788;SDS011;66980;44.384;0.512;2023-02-21T23:48:12;10.15;;;9.00;;
77788;SDS011;66980;44.384;0.512;2023-02-21T23:50:40;9.88;;;8.85;;
77788;SDS011;66980;44.384;0.512;2023-02-21T23:53:09;9.35;;;8.07;;
77788;SDS011;66980;44.384;0.512;2023-02-21T23:55:38;10.50;;;8.65;;
77788;SDS011;66980;44.384;0.512;2023-02-21T23:58:04;9.90;;;8.65;;
